Welcome to our new website - Welkom op onze vernieuwde website - Bienvenue sur notre nouveau site web - Willkommen auf unserer neuen Website
Check our progress frequently. Prüfen Sie unsere Fortschritte regelmäßig. Consultez notre progression fréquemment. Komt u straks nog eens terug
Mist van: 22-01-2020 03:59 tot: 12:59 waarschuwing voor: Mist niveau: Geel info button
Sneeuw/IJzel/Bevriezing van: 22-01-2020 03:59 tot: 13:59 waarschuwing voor: Sneeuw/IJzel/Bevriezing niveau: Geel info button

waarschuwing voor winterse neerslag Meer informatie rain snow radar


Bezoek ook deze websites:

Template documentation
and downloads

And another site


U vindt ons ook hier:

UK Metoffice

WeatherCloud

Weather Underground

AWEKAS



METAR rapporten vliegvelden

   
EBBR - Brussels International Airport, Belgium
Afstand tot: W 14 km
Gewijzigd: 22-01-2020 04:20
Freezing, Mist, Bewolking  
Freezing, Mist, Bewolking  
   Wind: Kalm
Wind: Kalm
Temperatuur: -1°C
Dauwpunt: -1°C
Vochtigheid: 100%
Barometer: 1037 hPa
Bewolking: Bewolking
Zicht: 0 km
Bewolking: Bewolking 100 ft
EBBR 220320Z 00000KT 0350 R25L/0650N R25R/0900U R01/0750N FZFG OVC001 M01/M01 Q1037 NOSIG
EBBE - Beauvechain (Bevekom), Belgium
Afstand tot: ZZO 17 km
Gewijzigd: 22-01-2020 04:25
Mist, Bewolking  
Mist, Bewolking  
   Wind: varieert 2 km/h
Wind: varieert 2 km/h
Temperatuur: -3°C
Dauwpunt: -3°C
Vochtigheid: 100%
Barometer: 1037 hPa
Bewolking: Bewolking
Zicht: 0 km
Bewolking: Bewolking 200 ft
EBBE 220325Z AUTO VRB01KT 0150 FG OVC002/// M03/M03 Q1037 RED
EBDT - Schaffen, Belgium
Afstand tot: ONO 29 km
Gewijzigd: 22-01-2020 04:25
Mist, Bewolking  
Mist, Bewolking  
   Wind: varieert 4 km/h
Wind: varieert 4 km/h
Temperatuur: -3°C
Dauwpunt: -3°C
Vochtigheid: 100%
Barometer: 1038 hPa
Bewolking: Bewolking
Zicht: 0 km
Bewolking: Bewolking 200 ft
EBDT 220325Z AUTO VRB02KT 0100 FG OVC002/// M03/M03 Q1038 RED
EBAW - Antwerp/Deurne, Belgium
Afstand tot: NNW 38 km
Gewijzigd: 22-01-2020 04:20
Lichte (mot)sneeuw, Freezing, Mist, Bewolking  
Lichte (mot)sneeuw, Freezing, Mist, Bewolking  
   Wind: Zuiden 6 km/h
Wind: Zuiden 6 km/h
Temperatuur: 0°C
Voelt als: -2°C
Dauwpunt: 0°C
Vochtigheid: 100%
Barometer: 1038 hPa
Bewolking: Bewolking
Zicht: 0 km
Bewolking: Bewolking 100 ft
EBAW 220320Z AUTO 17003KT 0400 R11/0500N R29/0450N -SG FZFG VV001 M00/M00 Q1038
EBCI - Charleroi/Gosselies, Belgium
Afstand tot: ZZW 51 km
Gewijzigd: 22-01-2020 04:20
Freezing, Mist, Bewolking  
Freezing, Mist, Bewolking  
   Wind: varieert 4 km/h
Wind: varieert 4 km/h
Temperatuur: -3°C
Dauwpunt: -3°C
Vochtigheid: 100%
Barometer: 1037 hPa
Bewolking: Bewolking
Zicht: 0 km
Bewolking: Bewolking 100 ft
EBCI 220320Z VRB02KT 0200 R24/0400N FZFG OVC001 M03/M03 Q1037 NOSIG
EBLG - Bierset/Liege, Belgium
Afstand tot: OZO 60 km
Gewijzigd: 22-01-2020 04:20
Freezing, Mist, Grotendeels bewolkt  
Freezing, Mist, Grotendeels bewolkt  
   Wind: ZZO 6 km/h
Wind: ZZO 6 km/h
Temperatuur: -4°C
Voelt als: -7°C
Dauwpunt: -4°C
Vochtigheid: 100%
Barometer: 1037 hPa
Bewolking: Grotendeels bewolkt
Zicht: 0 km
Bewolking: Grotendeels bewolkt 100 ft
EBLG 220320Z 16003KT 110V210 0100 R22L/0375N R22R/0300N R04R/0450N FZFG BKN001 M04/M04 Q1037 TEMPO 0800 FZFG

Script ontwikkeld door  Saratoga-weather.org Aangepast voor de template door  Weerstation Leuven

Apparatuur in gebruik:

Weerstation
Davis Vantage Pro2

Weerprogramma
Meteobridge

Weercomputer
TP-Link TL-MR3020

Webleverancier
One.com

Davis Vantage Pro2

Meteobridge

TP-Link TL-MR3020

One.com